sensor_id;sensor_type;location;lat;lon;timestamp;P1;durP1;ratioP1;P2;durP2;ratioP2
13327;SDS011;6733;51.044;3.746;2022-10-16T00:01:35;1.77;;;1.60;;
13327;SDS011;6733;51.044;3.746;2022-10-16T00:04:03;1.73;;;1.63;;
13327;SDS011;6733;51.044;3.746;2022-10-16T00:06:29;1.60;;;1.50;;
13327;SDS011;6733;51.044;3.746;2022-10-16T00:08:57;2.90;;;1.53;;
13327;SDS011;6733;51.044;3.746;2022-10-16T00:11:24;2.73;;;1.70;;
13327;SDS011;6733;51.044;3.746;2022-10-16T00:16:26;3.60;;;1.90;;
13327;SDS011;6733;51.044;3.746;2022-10-16T00:18:53;3.27;;;1.90;;
13327;SDS011;6733;51.044;3.746;2022-10-16T00:21:20;4.10;;;1.83;;
13327;SDS011;6733;51.044;3.746;2022-10-16T00:23:52;2.93;;;1.97;;
13327;SDS011;6733;51.044;3.746;2022-10-16T00:26:20;3.23;;;2.10;;
13327;SDS011;6733;51.044;3.746;2022-10-16T00:28:50;3.87;;;2.17;;
13327;SDS011;6733;51.044;3.746;2022-10-16T00:31:18;2.27;;;1.90;;
13327;SDS011;6733;51.044;3.746;2022-10-16T00:33:46;3.23;;;1.90;;
13327;SDS011;6733;51.044;3.746;2022-10-16T00:36:13;3.20;;;1.80;;
13327;SDS011;6733;51.044;3.746;2022-10-16T00:38:41;2.60;;;1.60;;
13327;SDS011;6733;51.044;3.746;2022-10-16T00:41:09;2.13;;;1.60;;
13327;SDS011;6733;51.044;3.746;2022-10-16T00:43:51;2.97;;;1.83;;
13327;SDS011;6733;51.044;3.746;2022-10-16T00:46:23;1.67;;;1.57;;
13327;SDS011;6733;51.044;3.746;2022-10-16T00:48:57;4.10;;;1.60;;
13327;SDS011;6733;51.044;3.746;2022-10-16T00:53:59;3.47;;;1.77;;
13327;SDS011;6733;51.044;3.746;2022-10-16T00:56:27;1.73;;;1.60;;
13327;SDS011;6733;51.044;3.746;2022-10-16T00:58:53;3.70;;;1.83;;
13327;SDS011;6733;51.044;3.746;2022-10-16T01:01:19;1.77;;;1.67;;
13327;SDS011;6733;51.044;3.746;2022-10-16T01:03:46;3.30;;;2.00;;
13327;SDS011;6733;51.044;3.746;2022-10-16T01:06:17;2.03;;;1.60;;
13327;SDS011;6733;51.044;3.746;2022-10-16T01:09:10;1.93;;;1.60;;
13327;SDS011;6733;51.044;3.746;2022-10-16T01:11:49;2.57;;;1.60;;
13327;SDS011;6733;51.044;3.746;2022-10-16T01:14:40;3.37;;;1.70;;
13327;SDS011;6733;51.044;3.746;2022-10-16T01:17:18;2.23;;;1.70;;
13327;SDS011;6733;51.044;3.746;2022-10-16T01:20:07;1.53;;;1.43;;
13327;SDS011;6733;51.044;3.746;2022-10-16T01:22:48;3.00;;;1.70;;
13327;SDS011;6733;51.044;3.746;2022-10-16T01:25:37;2.33;;;1.70;;
13327;SDS011;6733;51.044;3.746;2022-10-16T01:28:22;2.60;;;1.63;;
13327;SDS011;6733;51.044;3.746;2022-10-16T01:30:56;1.50;;;1.40;;
13327;SDS011;6733;51.044;3.746;2022-10-16T01:33:26;1.97;;;1.50;;
13327;SDS011;6733;51.044;3.746;2022-10-16T01:36:02;7.97;;;1.70;;
13327;SDS011;6733;51.044;3.746;2022-10-16T01:38:37;2.73;;;1.57;;
13327;SDS011;6733;51.044;3.746;2022-10-16T01:41:09;4.33;;;1.70;;
13327;SDS011;6733;51.044;3.746;2022-10-16T01:43:40;2.87;;;1.50;;
13327;SDS011;6733;51.044;3.746;2022-10-16T01:46:18;1.97;;;1.40;;
13327;SDS011;6733;51.044;3.746;2022-10-16T01:48:47;2.23;;;1.87;;
13327;SDS011;6733;51.044;3.746;2022-10-16T01:51:15;2.27;;;1.70;;
13327;SDS011;6733;51.044;3.746;2022-10-16T01:53:45;2.77;;;1.70;;
13327;SDS011;6733;51.044;3.746;2022-10-16T01:56:15;2.33;;;1.50;;
13327;SDS011;6733;51.044;3.746;2022-10-16T01:58:48;2.13;;;1.67;;
13327;SDS011;6733;51.044;3.746;2022-10-16T02:01:19;4.30;;;1.80;;
13327;SDS011;6733;51.044;3.746;2022-10-16T02:03:49;2.23;;;1.60;;
13327;SDS011;6733;51.044;3.746;2022-10-16T02:06:19;2.20;;;1.80;;
13327;SDS011;6733;51.044;3.746;2022-10-16T02:08:46;4.77;;;1.80;;
13327;SDS011;6733;51.044;3.746;2022-10-16T02:11:12;3.83;;;1.80;;
13327;SDS011;6733;51.044;3.746;2022-10-16T02:13:39;4.40;;;1.73;;
13327;SDS011;6733;51.044;3.746;2022-10-16T02:16:11;2.17;;;1.70;;
13327;SDS011;6733;51.044;3.746;2022-10-16T02:18:39;4.33;;;1.60;;
13327;SDS011;6733;51.044;3.746;2022-10-16T02:21:19;2.47;;;1.70;;
13327;SDS011;6733;51.044;3.746;2022-10-16T02:29:53;4.17;;;1.70;;
13327;SDS011;6733;51.044;3.746;2022-10-16T02:32:26;2.03;;;1.70;;
13327;SDS011;6733;51.044;3.746;2022-10-16T02:34:56;1.93;;;1.40;;
13327;SDS011;6733;51.044;3.746;2022-10-16T02:37:24;3.40;;;1.97;;
13327;SDS011;6733;51.044;3.746;2022-10-16T02:39:51;2.00;;;1.50;;
13327;SDS011;6733;51.044;3.746;2022-10-16T02:42:18;2.63;;;1.93;;
13327;SDS011;6733;51.044;3.746;2022-10-16T02:44:44;2.63;;;1.90;;
13327;SDS011;6733;51.044;3.746;2022-10-16T02:47:10;4.57;;;1.90;;
13327;SDS011;6733;51.044;3.746;2022-10-16T02:49:37;3.30;;;1.70;;
13327;SDS011;6733;51.044;3.746;2022-10-16T02:52:03;3.57;;;1.67;;
13327;SDS011;6733;51.044;3.746;2022-10-16T02:54:29;2.37;;;1.77;;
13327;SDS011;6733;51.044;3.746;2022-10-16T02:56:55;6.83;;;1.87;;
13327;SDS011;6733;51.044;3.746;2022-10-16T02:59:22;2.43;;;1.63;;
13327;SDS011;6733;51.044;3.746;2022-10-16T03:01:48;3.23;;;1.70;;
13327;SDS011;6733;51.044;3.746;2022-10-16T03:04:17;1.80;;;1.70;;
13327;SDS011;6733;51.044;3.746;2022-10-16T03:06:43;3.30;;;1.80;;
13327;SDS011;6733;51.044;3.746;2022-10-16T03:09:09;3.37;;;1.90;;
13327;SDS011;6733;51.044;3.746;2022-10-16T03:11:35;3.27;;;1.90;;
13327;SDS011;6733;51.044;3.746;2022-10-16T03:14:02;4.63;;;2.07;;
13327;SDS011;6733;51.044;3.746;2022-10-16T03:16:28;4.07;;;1.73;;
13327;SDS011;6733;51.044;3.746;2022-10-16T03:18:54;2.50;;;1.80;;
13327;SDS011;6733;51.044;3.746;2022-10-16T03:21:20;3.53;;;1.77;;
13327;SDS011;6733;51.044;3.746;2022-10-16T03:23:46;2.80;;;2.00;;
13327;SDS011;6733;51.044;3.746;2022-10-16T03:26:12;5.00;;;2.20;;
13327;SDS011;6733;51.044;3.746;2022-10-16T03:28:38;2.17;;;1.70;;
13327;SDS011;6733;51.044;3.746;2022-10-16T03:31:04;3.10;;;1.77;;
13327;SDS011;6733;51.044;3.746;2022-10-16T03:33:31;3.00;;;1.70;;
13327;SDS011;6733;51.044;3.746;2022-10-16T03:35:57;3.00;;;1.70;;
13327;SDS011;6733;51.044;3.746;2022-10-16T03:38:23;2.23;;;2.00;;
13327;SDS011;6733;51.044;3.746;2022-10-16T03:40:49;3.77;;;1.90;;
13327;SDS011;6733;51.044;3.746;2022-10-16T03:43:15;6.60;;;2.00;;
13327;SDS011;6733;51.044;3.746;2022-10-16T03:45:41;4.17;;;1.90;;
13327;SDS011;6733;51.044;3.746;2022-10-16T03:48:08;3.20;;;1.97;;
13327;SDS011;6733;51.044;3.746;2022-10-16T03:50:36;2.93;;;1.90;;
13327;SDS011;6733;51.044;3.746;2022-10-16T03:53:02;4.23;;;1.80;;
13327;SDS011;6733;51.044;3.746;2022-10-16T03:55:28;3.10;;;2.03;;
13327;SDS011;6733;51.044;3.746;2022-10-16T03:57:55;2.93;;;1.60;;
13327;SDS011;6733;51.044;3.746;2022-10-16T04:00:21;3.63;;;1.97;;
13327;SDS011;6733;51.044;3.746;2022-10-16T04:02:47;3.60;;;1.80;;
13327;SDS011;6733;51.044;3.746;2022-10-16T04:05:13;2.50;;;1.90;;
13327;SDS011;6733;51.044;3.746;2022-10-16T04:07:39;4.10;;;2.00;;
13327;SDS011;6733;51.044;3.746;2022-10-16T04:10:05;6.37;;;2.57;;
13327;SDS011;6733;51.044;3.746;2022-10-16T04:12:32;4.63;;;2.07;;
13327;SDS011;6733;51.044;3.746;2022-10-16T04:14:58;5.60;;;2.67;;
13327;SDS011;6733;51.044;3.746;2022-10-16T04:17:24;5.37;;;1.93;;
13327;SDS011;6733;51.044;3.746;2022-10-16T04:19:51;6.83;;;2.23;;
13327;SDS011;6733;51.044;3.746;2022-10-16T04:22:17;7.67;;;2.27;;
13327;SDS011;6733;51.044;3.746;2022-10-16T04:24:43;2.60;;;1.93;;
13327;SDS011;6733;51.044;3.746;2022-10-16T04:27:09;3.43;;;2.17;;
13327;SDS011;6733;51.044;3.746;2022-10-16T04:29:35;4.67;;;2.73;;
13327;SDS011;6733;51.044;3.746;2022-10-16T04:32:01;4.30;;;2.27;;
13327;SDS011;6733;51.044;3.746;2022-10-16T04:34:28;3.00;;;1.83;;
13327;SDS011;6733;51.044;3.746;2022-10-16T04:36:54;6.50;;;2.53;;
13327;SDS011;6733;51.044;3.746;2022-10-16T04:39:20;4.40;;;2.63;;
13327;SDS011;6733;51.044;3.746;2022-10-16T04:41:46;4.10;;;2.30;;
13327;SDS011;6733;51.044;3.746;2022-10-16T04:44:12;6.57;;;2.33;;
13327;SDS011;6733;51.044;3.746;2022-10-16T04:46:39;3.13;;;2.17;;
13327;SDS011;6733;51.044;3.746;2022-10-16T04:51:34;4.03;;;2.23;;
13327;SDS011;6733;51.044;3.746;2022-10-16T04:54:00;2.77;;;2.47;;
13327;SDS011;6733;51.044;3.746;2022-10-16T04:56:26;3.57;;;2.57;;
13327;SDS011;6733;51.044;3.746;2022-10-16T04:58:52;4.33;;;2.10;;
13327;SDS011;6733;51.044;3.746;2022-10-16T05:01:19;2.53;;;2.10;;
13327;SDS011;6733;51.044;3.746;2022-10-16T05:06:14;3.30;;;2.30;;
13327;SDS011;6733;51.044;3.746;2022-10-16T05:08:40;7.37;;;2.57;;
13327;SDS011;6733;51.044;3.746;2022-10-16T05:11:06;2.90;;;2.10;;
13327;SDS011;6733;51.044;3.746;2022-10-16T05:13:33;3.07;;;2.20;;
13327;SDS011;6733;51.044;3.746;2022-10-16T05:15:59;5.20;;;2.40;;
13327;SDS011;6733;51.044;3.746;2022-10-16T05:18:25;3.20;;;1.97;;
13327;SDS011;6733;51.044;3.746;2022-10-16T05:20:51;4.57;;;2.33;;
13327;SDS011;6733;51.044;3.746;2022-10-16T05:23:17;4.33;;;2.40;;
13327;SDS011;6733;51.044;3.746;2022-10-16T05:25:51;4.87;;;2.37;;
13327;SDS011;6733;51.044;3.746;2022-10-16T05:28:18;3.63;;;1.90;;
13327;SDS011;6733;51.044;3.746;2022-10-16T05:33:14;5.07;;;2.20;;
13327;SDS011;6733;51.044;3.746;2022-10-16T05:35:40;2.63;;;2.17;;
13327;SDS011;6733;51.044;3.746;2022-10-16T05:38:06;3.33;;;2.20;;
13327;SDS011;6733;51.044;3.746;2022-10-16T05:40:33;5.97;;;2.30;;
13327;SDS011;6733;51.044;3.746;2022-10-16T05:42:59;3.93;;;2.10;;
13327;SDS011;6733;51.044;3.746;2022-10-16T05:45:25;2.67;;;2.00;;
13327;SDS011;6733;51.044;3.746;2022-10-16T05:47:51;3.13;;;2.00;;
13327;SDS011;6733;51.044;3.746;2022-10-16T05:50:17;3.37;;;2.10;;
13327;SDS011;6733;51.044;3.746;2022-10-16T05:52:43;3.30;;;2.10;;
13327;SDS011;6733;51.044;3.746;2022-10-16T05:55:09;3.40;;;2.30;;
13327;SDS011;6733;51.044;3.746;2022-10-16T05:57:35;4.70;;;2.27;;
13327;SDS011;6733;51.044;3.746;2022-10-16T06:02:34;4.33;;;2.20;;
13327;SDS011;6733;51.044;3.746;2022-10-16T06:05:01;3.50;;;2.40;;
13327;SDS011;6733;51.044;3.746;2022-10-16T06:07:27;3.53;;;2.40;;
13327;SDS011;6733;51.044;3.746;2022-10-16T06:09:53;6.27;;;2.73;;
13327;SDS011;6733;51.044;3.746;2022-10-16T06:12:19;2.80;;;2.00;;
13327;SDS011;6733;51.044;3.746;2022-10-16T06:14:46;5.30;;;2.30;;
13327;SDS011;6733;51.044;3.746;2022-10-16T06:17:13;4.67;;;2.40;;
13327;SDS011;6733;51.044;3.746;2022-10-16T06:19:39;6.13;;;2.93;;
13327;SDS011;6733;51.044;3.746;2022-10-16T06:22:06;4.23;;;2.37;;
13327;SDS011;6733;51.044;3.746;2022-10-16T06:24:35;4.47;;;2.40;;
13327;SDS011;6733;51.044;3.746;2022-10-16T06:27:02;4.70;;;2.40;;
13327;SDS011;6733;51.044;3.746;2022-10-16T06:29:29;4.60;;;2.40;;
13327;SDS011;6733;51.044;3.746;2022-10-16T06:31:56;4.67;;;2.30;;
13327;SDS011;6733;51.044;3.746;2022-10-16T06:34:22;4.57;;;2.20;;
13327;SDS011;6733;51.044;3.746;2022-10-16T06:36:48;4.33;;;2.00;;
13327;SDS011;6733;51.044;3.746;2022-10-16T06:39:14;3.37;;;2.20;;
13327;SDS011;6733;51.044;3.746;2022-10-16T06:41:40;3.50;;;1.97;;
13327;SDS011;6733;51.044;3.746;2022-10-16T06:44:07;4.87;;;2.53;;
13327;SDS011;6733;51.044;3.746;2022-10-16T06:46:33;4.40;;;2.53;;
13327;SDS011;6733;51.044;3.746;2022-10-16T06:49:00;3.90;;;2.57;;
13327;SDS011;6733;51.044;3.746;2022-10-16T06:51:26;3.50;;;2.97;;
13327;SDS011;6733;51.044;3.746;2022-10-16T06:53:53;3.97;;;2.00;;
13327;SDS011;6733;51.044;3.746;2022-10-16T06:56:23;3.73;;;2.10;;
13327;SDS011;6733;51.044;3.746;2022-10-16T06:58:51;3.47;;;2.20;;
13327;SDS011;6733;51.044;3.746;2022-10-16T07:01:19;3.50;;;2.40;;
13327;SDS011;6733;51.044;3.746;2022-10-16T07:03:47;5.60;;;2.80;;
13327;SDS011;6733;51.044;3.746;2022-10-16T07:06:15;4.10;;;2.40;;
13327;SDS011;6733;51.044;3.746;2022-10-16T07:11:13;4.33;;;2.43;;
13327;SDS011;6733;51.044;3.746;2022-10-16T07:13:41;3.97;;;2.43;;
13327;SDS011;6733;51.044;3.746;2022-10-16T07:16:10;7.13;;;2.73;;
13327;SDS011;6733;51.044;3.746;2022-10-16T07:18:38;5.13;;;2.80;;
13327;SDS011;6733;51.044;3.746;2022-10-16T07:21:06;5.70;;;2.77;;
13327;SDS011;6733;51.044;3.746;2022-10-16T07:26:04;4.63;;;2.70;;
13327;SDS011;6733;51.044;3.746;2022-10-16T07:28:31;2.57;;;2.37;;
13327;SDS011;6733;51.044;3.746;2022-10-16T07:31:05;7.17;;;2.83;;
13327;SDS011;6733;51.044;3.746;2022-10-16T07:33:34;3.57;;;2.57;;
13327;SDS011;6733;51.044;3.746;2022-10-16T07:36:00;5.00;;;2.63;;
13327;SDS011;6733;51.044;3.746;2022-10-16T07:38:26;6.90;;;2.67;;
13327;SDS011;6733;51.044;3.746;2022-10-16T07:40:57;4.67;;;2.20;;
13327;SDS011;6733;51.044;3.746;2022-10-16T07:43:27;4.17;;;2.53;;
13327;SDS011;6733;51.044;3.746;2022-10-16T07:45:54;3.90;;;2.33;;
13327;SDS011;6733;51.044;3.746;2022-10-16T07:48:21;4.33;;;2.87;;
13327;SDS011;6733;51.044;3.746;2022-10-16T07:50:48;4.33;;;2.70;;
13327;SDS011;6733;51.044;3.746;2022-10-16T07:53:14;5.13;;;2.80;;
13327;SDS011;6733;51.044;3.746;2022-10-16T07:55:41;5.83;;;2.93;;
13327;SDS011;6733;51.044;3.746;2022-10-16T07:58:07;7.43;;;2.50;;
13327;SDS011;6733;51.044;3.746;2022-10-16T08:00:35;4.87;;;2.67;;
13327;SDS011;6733;51.044;3.746;2022-10-16T08:03:02;3.80;;;2.60;;
13327;SDS011;6733;51.044;3.746;2022-10-16T08:05:29;6.23;;;2.70;;
13327;SDS011;6733;51.044;3.746;2022-10-16T08:07:56;3.87;;;2.30;;
13327;SDS011;6733;51.044;3.746;2022-10-16T08:10:23;5.80;;;2.60;;
13327;SDS011;6733;51.044;3.746;2022-10-16T08:12:52;3.97;;;2.40;;
13327;SDS011;6733;51.044;3.746;2022-10-16T08:15:18;4.97;;;2.30;;
13327;SDS011;6733;51.044;3.746;2022-10-16T08:17:54;5.63;;;2.30;;
13327;SDS011;6733;51.044;3.746;2022-10-16T08:20:21;8.67;;;2.50;;
13327;SDS011;6733;51.044;3.746;2022-10-16T08:22:47;5.47;;;2.10;;
13327;SDS011;6733;51.044;3.746;2022-10-16T08:25:13;4.87;;;2.40;;
13327;SDS011;6733;51.044;3.746;2022-10-16T08:27:39;5.17;;;2.37;;
13327;SDS011;6733;51.044;3.746;2022-10-16T08:30:06;6.27;;;2.50;;
13327;SDS011;6733;51.044;3.746;2022-10-16T08:32:32;5.53;;;2.23;;
13327;SDS011;6733;51.044;3.746;2022-10-16T08:34:58;6.33;;;2.27;;
13327;SDS011;6733;51.044;3.746;2022-10-16T08:37:24;7.27;;;2.53;;
13327;SDS011;6733;51.044;3.746;2022-10-16T08:39:56;5.73;;;2.40;;
13327;SDS011;6733;51.044;3.746;2022-10-16T08:47:57;9.60;;;2.57;;
13327;SDS011;6733;51.044;3.746;2022-10-16T08:50:25;5.73;;;2.60;;
13327;SDS011;6733;51.044;3.746;2022-10-16T08:52:53;6.37;;;2.27;;
13327;SDS011;6733;51.044;3.746;2022-10-16T08:58:19;5.87;;;3.13;;
13327;SDS011;6733;51.044;3.746;2022-10-16T09:00:55;5.07;;;2.77;;
13327;SDS011;6733;51.044;3.746;2022-10-16T09:20:18;6.17;;;2.20;;
13327;SDS011;6733;51.044;3.746;2022-10-16T09:23:08;3.73;;;2.10;;
13327;SDS011;6733;51.044;3.746;2022-10-16T09:25:39;4.53;;;2.30;;
13327;SDS011;6733;51.044;3.746;2022-10-16T09:28:09;7.70;;;2.80;;
13327;SDS011;6733;51.044;3.746;2022-10-16T09:30:36;6.57;;;2.40;;
13327;SDS011;6733;51.044;3.746;2022-10-16T09:33:03;6.60;;;2.17;;
13327;SDS011;6733;51.044;3.746;2022-10-16T09:35:38;4.00;;;2.23;;
13327;SDS011;6733;51.044;3.746;2022-10-16T09:38:06;8.43;;;2.60;;
13327;SDS011;6733;51.044;3.746;2022-10-16T09:40:36;8.10;;;2.50;;
13327;SDS011;6733;51.044;3.746;2022-10-16T09:43:13;7.50;;;2.57;;
13327;SDS011;6733;51.044;3.746;2022-10-16T09:46:01;7.73;;;2.80;;
13327;SDS011;6733;51.044;3.746;2022-10-16T09:51:04;6.77;;;2.40;;
13327;SDS011;6733;51.044;3.746;2022-10-16T09:53:55;5.73;;;2.57;;
13327;SDS011;6733;51.044;3.746;2022-10-16T09:56:25;7.77;;;2.53;;
13327;SDS011;6733;51.044;3.746;2022-10-16T09:58:54;6.30;;;2.53;;
13327;SDS011;6733;51.044;3.746;2022-10-16T10:01:24;4.30;;;2.40;;
13327;SDS011;6733;51.044;3.746;2022-10-16T10:04:00;5.30;;;2.87;;
13327;SDS011;6733;51.044;3.746;2022-10-16T10:06:29;6.50;;;2.23;;
13327;SDS011;6733;51.044;3.746;2022-10-16T10:09:04;8.37;;;2.47;;
13327;SDS011;6733;51.044;3.746;2022-10-16T10:11:56;7.47;;;2.30;;
13327;SDS011;6733;51.044;3.746;2022-10-16T10:14:28;8.47;;;2.33;;
13327;SDS011;6733;51.044;3.746;2022-10-16T10:27:39;8.40;;;2.57;;
13327;SDS011;6733;51.044;3.746;2022-10-16T10:30:29;7.87;;;2.73;;
13327;SDS011;6733;51.044;3.746;2022-10-16T10:33:14;4.93;;;2.70;;
13327;SDS011;6733;51.044;3.746;2022-10-16T10:46:41;7.87;;;3.00;;
13327;SDS011;6733;51.044;3.746;2022-10-16T10:52:30;9.30;;;2.57;;
13327;SDS011;6733;51.044;3.746;2022-10-16T10:55:08;7.60;;;2.63;;
13327;SDS011;6733;51.044;3.746;2022-10-16T11:02:57;6.30;;;2.77;;
13327;SDS011;6733;51.044;3.746;2022-10-16T11:05:49;5.67;;;2.37;;
13327;SDS011;6733;51.044;3.746;2022-10-16T11:08:46;8.10;;;3.10;;
13327;SDS011;6733;51.044;3.746;2022-10-16T11:11:19;6.30;;;2.87;;
13327;SDS011;6733;51.044;3.746;2022-10-16T11:16:40;6.47;;;2.33;;
13327;SDS011;6733;51.044;3.746;2022-10-16T11:21:47;7.00;;;2.60;;
13327;SDS011;6733;51.044;3.746;2022-10-16T11:24:21;5.80;;;2.20;;
13327;SDS011;6733;51.044;3.746;2022-10-16T11:26:57;6.37;;;2.30;;
13327;SDS011;6733;51.044;3.746;2022-10-16T11:29:29;7.17;;;2.57;;
13327;SDS011;6733;51.044;3.746;2022-10-16T11:31:57;8.33;;;3.00;;
13327;SDS011;6733;51.044;3.746;2022-10-16T11:37:32;5.93;;;2.47;;
13327;SDS011;6733;51.044;3.746;2022-10-16T11:40:09;4.70;;;2.33;;
13327;SDS011;6733;51.044;3.746;2022-10-16T11:42:50;6.93;;;2.53;;
13327;SDS011;6733;51.044;3.746;2022-10-16T11:45:26;7.70;;;2.40;;
13327;SDS011;6733;51.044;3.746;2022-10-16T11:48:01;7.70;;;2.37;;
13327;SDS011;6733;51.044;3.746;2022-10-16T11:53:25;5.77;;;2.77;;
13327;SDS011;6733;51.044;3.746;2022-10-16T11:56:04;3.20;;;1.90;;
13327;SDS011;6733;51.044;3.746;2022-10-16T12:03:42;6.13;;;2.37;;
13327;SDS011;6733;51.044;3.746;2022-10-16T12:09:26;7.10;;;2.60;;
13327;SDS011;6733;51.044;3.746;2022-10-16T12:11:57;6.10;;;2.37;;
13327;SDS011;6733;51.044;3.746;2022-10-16T12:16:57;7.50;;;2.57;;
13327;SDS011;6733;51.044;3.746;2022-10-16T12:19:28;7.70;;;2.43;;
13327;SDS011;6733;51.044;3.746;2022-10-16T12:22:00;7.20;;;2.93;;
13327;SDS011;6733;51.044;3.746;2022-10-16T12:24:51;6.67;;;2.50;;
13327;SDS011;6733;51.044;3.746;2022-10-16T12:27:28;4.53;;;2.07;;
13327;SDS011;6733;51.044;3.746;2022-10-16T12:30:00;5.50;;;2.13;;
13327;SDS011;6733;51.044;3.746;2022-10-16T12:41:25;5.50;;;2.03;;
13327;SDS011;6733;51.044;3.746;2022-10-16T12:43:54;3.77;;;1.63;;
13327;SDS011;6733;51.044;3.746;2022-10-16T12:46:22;5.83;;;1.90;;
13327;SDS011;6733;51.044;3.746;2022-10-16T16:27:17;7.13;;;3.23;;
